Time;durP1;ratioP1;P1;durP2;ratioP2;P2;SDS_P1;SDS_P2;PMS_P1;PMS_P2;Temp;Humidity;BMP_temperature;BMP_pressure;BME280_temperature;BME280_humidity;BME280_pressure;Samples;Min_cycle;Max_cycle;Signal;HPM_P1;HPM_P2
2021/10/28 00:12:53;;;;;;;57.64;32.48;;;;;;;1.48;44.56;101680.84;449809;116;922740;-76
2021/10/28 00:13:50;;;;;;;70.66;35.77;;;;;;;1.48;44.57;101683.53;449528;114;922530;-75
2021/10/28 00:14:56;;;;;;;68.42;35.89;;;;;;;1.49;44.59;101687.91;450266;114;922491;-74
2021/10/28 00:16:08;;;;;;;69.22;35.55;;;;;;;1.50;44.60;101688.76;451240;114;922549;-75
2021/10/28 00:17:09;;;;;;;72.18;36.21;;;;;;;1.49;44.64;101689.77;447310;116;922828;-76
2021/10/28 00:18:13;;;;;;;72.32;35.83;;;;;;;1.49;44.62;101685.22;449034;114;922578;-75
2021/10/28 00:19:16;;;;;;;81.53;37.93;;;;;;;1.50;44.62;101683.38;451597;114;922519;-76
2021/10/28 00:20:20;;;;;;;69.22;36.44;;;;;;;1.50;44.61;101686.92;450038;114;922660;-75
2021/10/28 00:21:24;;;;;;;69.51;38.14;;;;;;;1.50;44.65;101692.30;449055;114;923089;-75
2021/10/28 00:22:28;;;;;;;70.94;36.60;;;;;;;1.51;44.64;101695.84;449977;114;922771;-75
2021/10/28 00:23:40;;;;;;;80.92;37.49;;;;;;;1.53;44.63;101684.00;449241;114;922658;-76
2021/10/28 00:24:37;;;;;;;74.24;36.31;;;;;;;1.55;44.63;101689.22;436608;118;923009;-75
2021/10/28 00:25:41;;;;;;;69.68;36.92;;;;;;;1.53;44.62;101686.69;447420;116;923117;-75
2021/10/28 00:26:47;;;;;;;80.58;36.63;;;;;;;1.53;44.69;101683.14;450476;114;922530;-76
2021/10/28 00:27:51;;;;;;;70.26;37.17;;;;;;;1.54;44.68;101683.02;450874;114;922599;-76
2021/10/28 00:28:59;;;;;;;71.24;37.23;;;;;;;1.55;44.69;101683.84;450897;114;923981;-76
2021/10/28 00:30:03;;;;;;;68.65;36.48;;;;;;;1.53;44.74;101688.52;450285;114;930572;-75
2021/10/28 00:31:07;;;;;;;75.25;38.61;;;;;;;1.53;44.80;101688.52;442714;116;922743;-76
2021/10/28 00:32:11;;;;;;;77.98;37.55;;;;;;;1.54;44.89;101685.71;443922;115;923056;-76
2021/10/28 00:33:16;;;;;;;68.24;36.56;;;;;;;1.56;44.87;101691.78;448291;114;922646;-75
2021/10/28 00:34:19;;;;;;;72.88;39.37;;;;;;;1.58;44.84;101684.45;448243;115;922855;-75
2021/10/28 00:35:23;;;;;;;77.64;41.01;;;;;;;1.59;44.80;101685.31;450104;114;922752;-75
2021/10/28 00:36:27;;;;;;;72.43;36.95;;;;;;;1.58;44.76;101683.60;449818;114;930512;-75
2021/10/28 00:37:31;;;;;;;77.31;39.16;;;;;;;1.57;44.77;101687.27;451119;114;922462;-75
2021/10/28 00:38:34;;;;;;;72.93;38.64;;;;;;;1.55;44.87;101684.70;450232;114;923062;-75
2021/10/28 00:39:40;;;;;;;77.19;39.11;;;;;;;1.56;44.98;101696.30;451395;114;922757;-76
2021/10/28 00:40:44;;;;;;;71.45;37.85;;;;;;;1.57;45.01;101689.95;450301;114;922702;-76
2021/10/28 00:41:49;;;;;;;74.64;38.20;;;;;;;1.57;44.94;101700.70;451209;114;922624;-75
2021/10/28 00:42:53;;;;;;;73.96;41.04;;;;;;;1.56;44.94;101691.78;449133;114;922848;-75
2021/10/28 00:43:58;;;;;;;75.13;37.14;;;;;;;1.55;44.98;101691.91;448843;114;922611;-76
2021/10/28 00:45:03;;;;;;;72.69;37.16;;;;;;;1.55;45.04;101694.59;450384;114;922736;-75
2021/10/28 00:46:07;;;;;;;68.87;35.31;;;;;;;1.56;45.07;101693.62;451723;114;922933;-76
2021/10/28 00:47:10;;;;;;;73.39;35.60;;;;;;;1.59;45.04;101696.92;449921;114;922506;-75
2021/10/28 00:48:14;;;;;;;69.11;35.58;;;;;;;1.61;45.04;101697.63;448266;116;925794;-77
2021/10/28 00:49:18;;;;;;;60.69;33.78;;;;;;;1.65;45.06;101692.86;449864;114;922969;-76
2021/10/28 00:50:22;;;;;;;65.71;35.13;;;;;;;1.68;45.11;101690.75;449825;114;923212;-74
2021/10/28 00:51:28;;;;;;;71.91;35.73;;;;;;;1.73;45.13;101687.67;451018;114;930423;-76
2021/10/28 00:52:34;;;;;;;75.15;37.44;;;;;;;1.77;45.10;101681.03;449562;114;930612;-76
2021/10/28 00:53:38;;;;;;;71.06;38.34;;;;;;;1.81;45.03;101681.64;451528;114;922671;-76
2021/10/28 00:54:42;;;;;;;71.98;37.55;;;;;;;1.86;45.02;101676.72;450845;114;922647;-76
2021/10/28 00:55:46;;;;;;;69.81;37.05;;;;;;;1.88;44.96;101680.97;451157;114;922576;-75
2021/10/28 00:56:50;;;;;;;65.73;36.41;;;;;;;1.91;44.95;101680.72;448732;116;922837;-75
2021/10/28 00:57:54;;;;;;;75.11;37.66;;;;;;;1.95;44.91;101681.30;449912;114;922540;-74
2021/10/28 00:59:02;;;;;;;71.72;37.38;;;;;;;1.98;44.82;101681.05;451101;114;930963;-76
2021/10/28 01:00:07;;;;;;;69.16;36.18;;;;;;;2.00;44.77;101685.30;449276;114;923138;-75
2021/10/28 01:01:11;;;;;;;65.19;36.27;;;;;;;2.03;44.75;101684.19;451859;114;922543;-75
2021/10/28 01:02:14;;;;;;;70.41;37.61;;;;;;;2.05;44.69;101682.20;450882;114;922612;-76
2021/10/28 01:03:20;;;;;;;71.16;38.46;;;;;;;2.06;44.61;101676.70;450633;114;923988;-74
2021/10/28 01:04:24;;;;;;;69.14;36.14;;;;;;;2.07;44.52;101675.72;450459;115;930530;-77
2021/10/28 01:05:27;;;;;;;67.46;34.24;;;;;;;2.08;44.45;101676.58;449818;114;922562;-75
2021/10/28 01:06:32;;;;;;;63.22;32.33;;;;;;;2.05;44.40;101680.37;449469;115;930410;-74
2021/10/28 01:07:36;;;;;;;63.74;32.11;;;;;;;2.04;44.36;101681.34;449199;114;922986;-75
2021/10/28 01:08:42;;;;;;;61.18;32.54;;;;;;;2.01;44.35;101684.31;450581;114;930516;-75
2021/10/28 01:09:46;;;;;;;65.32;33.45;;;;;;;1.97;44.31;101680.20;448011;116;930081;-76
2021/10/28 01:10:50;;;;;;;61.88;32.19;;;;;;;1.95;44.33;101683.98;449037;114;922493;-75
2021/10/28 01:11:54;;;;;;;59.08;31.38;;;;;;;1.92;44.33;101678.89;450304;114;930511;-74
2021/10/28 01:12:57;;;;;;;58.04;30.80;;;;;;;1.90;44.30;101679.02;451545;114;922585;-74
2021/10/28 01:14:00;;;;;;;59.04;31.80;;;;;;;1.88;44.29;101680.97;450048;116;922650;-75
2021/10/28 01:15:12;;;;;;;60.24;31.76;;;;;;;1.84;44.32;101682.22;452038;114;924003;-74
2021/10/28 01:16:20;;;;;;;49.86;28.94;;;;;;;1.81;44.34;101679.81;452501;114;922701;-75
2021/10/28 01:17:23;;;;;;;51.33;28.37;;;;;;;1.77;44.30;101683.72;448983;114;922958;-75
2021/10/28 01:18:28;;;;;;;58.39;29.61;;;;;;;1.74;44.29;101686.69;449550;114;922974;-75
2021/10/28 01:19:32;;;;;;;64.64;33.04;;;;;;;1.71;44.30;101691.48;450860;114;923038;-75
2021/10/28 01:20:38;;;;;;;61.48;32.88;;;;;;;1.66;44.30;101686.48;451085;114;922720;-74
2021/10/28 01:21:43;;;;;;;58.56;32.25;;;;;;;1.62;44.30;101696.65;451191;114;922561;-75
2021/10/28 01:22:47;;;;;;;54.29;31.42;;;;;;;1.59;44.38;101688.00;449870;115;922777;-75
2021/10/28 01:23:50;;;;;;;61.46;32.92;;;;;;;1.54;44.47;101687.54;450577;114;930418;-75
2021/10/28 01:24:54;;;;;;;66.09;33.18;;;;;;;1.53;44.52;101688.52;450454;114;930049;-76
2021/10/28 01:26:07;;;;;;;65.56;33.22;;;;;;;1.52;44.60;101686.80;448719;116;930842;-75
2021/10/28 01:27:11;;;;;;;68.98;32.88;;;;;;;1.50;44.62;101681.55;443048;116;923283;-74
2021/10/28 01:28:16;;;;;;;59.58;33.02;;;;;;;1.47;44.67;101679.14;444244;116;922748;-75
2021/10/28 01:29:19;;;;;;;67.82;32.59;;;;;;;1.46;44.76;101677.42;449976;114;923765;-75
2021/10/28 01:30:23;;;;;;;57.58;31.35;;;;;;;1.45;44.79;101680.23;448025;115;930201;-74
2021/10/28 01:31:30;;;;;;;63.48;32.04;;;;;;;1.44;44.87;101681.20;449219;116;922579;-75
2021/10/28 01:32:34;;;;;;;59.29;31.61;;;;;;;1.42;44.83;101681.36;449915;114;923156;-75
2021/10/28 01:33:40;;;;;;;61.60;31.08;;;;;;;1.40;44.89;101686.00;450444;114;922535;-75
2021/10/28 01:34:45;;;;;;;52.93;29.92;;;;;;;1.38;44.96;101681.75;448833;116;923343;-75
2021/10/28 01:35:49;;;;;;;55.23;30.94;;;;;;;1.37;45.03;101688.10;449292;114;922681;-75
2021/10/28 01:36:55;;;;;;;59.77;31.52;;;;;;;1.37;45.03;101680.04;451458;114;923199;-74
2021/10/28 01:37:59;;;;;;;61.54;33.42;;;;;;;1.36;45.07;101689.94;452479;114;923178;-75
2021/10/28 01:39:17;;;;;;;60.57;32.77;;;;;;;1.35;45.14;101684.67;449257;114;922551;-75
2021/10/28 01:40:21;;;;;;;54.06;32.98;;;;;;;1.37;45.23;101685.41;450971;115;930297;-75
2021/10/28 01:41:28;;;;;;;67.00;33.25;;;;;;;1.39;45.17;101691.50;451256;114;922973;-76
2021/10/28 01:42:31;;;;;;;61.08;33.79;;;;;;;1.42;45.21;101691.25;450409;114;922649;-74
2021/10/28 01:43:35;;;;;;;66.89;35.14;;;;;;;1.45;45.21;101682.92;448479;116;922669;-74
2021/10/28 01:44:39;;;;;;;63.13;34.89;;;;;;;1.49;45.19;101692.45;448826;114;922837;-74
2021/10/28 01:45:42;;;;;;;68.86;36.34;;;;;;;1.51;45.16;101685.09;450145;114;930332;-74
2021/10/28 01:46:46;;;;;;;60.55;33.28;;;;;;;1.53;45.11;101688.52;451940;114;922605;-75
2021/10/28 01:47:50;;;;;;;63.11;34.94;;;;;;;1.53;45.03;101689.38;448308;115;930078;-75
2021/10/28 01:48:53;;;;;;;57.96;33.29;;;;;;;1.55;45.04;101689.22;440249;116;930162;-75
2021/10/28 01:49:57;;;;;;;64.36;34.26;;;;;;;1.56;44.99;101680.18;441334;115;922682;-74
2021/10/28 01:51:00;;;;;;;58.33;31.71;;;;;;;1.58;44.93;101683.60;450505;114;922591;-75
2021/10/28 01:52:04;;;;;;;56.28;32.29;;;;;;;1.58;44.87;101683.60;449940;115;930567;-76
2021/10/28 01:53:09;;;;;;;52.59;29.61;;;;;;;1.60;44.83;101681.62;449798;114;930318;-75
2021/10/28 01:54:12;;;;;;;51.39;30.03;;;;;;;1.60;44.76;101679.78;448777;114;922601;-74
2021/10/28 01:55:16;;;;;;;63.78;32.98;;;;;;;1.59;44.68;101674.56;449933;114;922889;-75
2021/10/28 01:56:22;;;;;;;64.66;34.77;;;;;;;1.57;44.69;101671.99;448582;116;922532;-76
2021/10/28 01:57:26;;;;;;;72.27;36.19;;;;;;;1.57;44.71;101676.52;449462;114;922526;-76
2021/10/28 01:58:30;;;;;;;67.22;34.18;;;;;;;1.55;44.79;101678.47;450173;114;922729;-75
2021/10/28 01:59:33;;;;;;;69.58;35.97;;;;;;;1.53;44.81;101678.63;451328;114;923004;-75
2021/10/28 02:00:38;;;;;;;65.16;36.96;;;;;;;1.53;44.84;101677.77;448875;116;922937;-75
2021/10/28 02:01:42;;;;;;;70.98;37.04;;;;;;;1.50;44.84;101678.86;452051;114;930582;-76
2021/10/28 02:02:46;;;;;;;67.38;36.75;;;;;;;1.47;44.89;101679.14;450234;114;923113;-74
2021/10/28 02:03:49;;;;;;;78.61;40.04;;;;;;;1.45;44.92;101677.55;451225;114;930589;-76
2021/10/28 02:04:53;;;;;;;79.34;39.63;;;;;;;1.42;44.99;101675.98;448618;115;922470;-75
2021/10/28 02:05:56;;;;;;;76.11;39.63;;;;;;;1.42;45.12;101683.20;450712;114;922661;-77
2021/10/28 02:07:01;;;;;;;73.79;39.99;;;;;;;1.42;45.20;101675.13;451293;114;930598;-76
2021/10/28 02:08:05;;;;;;;74.58;39.99;;;;;;;1.42;45.22;101684.05;449987;114;930551;-75
2021/10/28 02:09:09;;;;;;;82.87;41.66;;;;;;;1.44;45.29;101686.59;452011;114;922971;-76
2021/10/28 02:10:14;;;;;;;74.48;41.26;;;;;;;1.44;45.33;101682.06;451283;114;922650;-76
2021/10/28 02:11:17;;;;;;;73.02;40.65;;;;;;;1.44;45.36;101684.75;451591;114;922977;-76
2021/10/28 02:12:21;;;;;;;94.51;41.99;;;;;;;1.44;45.40;101681.20;450957;114;922482;-76
2021/10/28 02:13:24;;;;;;;85.23;40.70;;;;;;;1.43;45.41;101685.76;450638;114;922574;-75
2021/10/28 02:14:28;;;;;;;77.15;41.38;;;;;;;1.42;45.42;101684.05;448894;114;930314;-77
2021/10/28 02:15:32;;;;;;;76.31;40.33;;;;;;;1.42;45.47;101678.67;449398;114;922586;-74
2021/10/28 02:16:37;;;;;;;77.04;40.91;;;;;;;1.40;45.60;101683.31;450442;114;930229;-75
2021/10/28 02:17:41;;;;;;;83.10;41.89;;;;;;;1.41;45.65;101681.48;449107;114;922728;-75
2021/10/28 02:18:44;;;;;;;78.69;41.65;;;;;;;1.42;45.68;101684.05;449637;114;922535;-75
2021/10/28 02:19:48;;;;;;;81.44;41.71;;;;;;;1.42;45.73;101692.11;448265;115;922720;-75
2021/10/28 02:20:51;;;;;;;82.18;42.58;;;;;;;1.41;45.71;101689.55;449707;114;922602;-74
2021/10/28 02:21:55;;;;;;;83.39;42.46;;;;;;;1.39;45.76;101686.98;448850;115;922724;-75
2021/10/28 02:22:59;;;;;;;85.66;42.55;;;;;;;1.37;45.80;101688.95;450829;114;922883;-75
2021/10/28 02:24:03;;;;;;;84.42;41.39;;;;;;;1.35;45.85;101696.28;451603;114;922878;-74
2021/10/28 02:25:07;;;;;;;82.42;42.75;;;;;;;1.32;45.89;101685.80;450713;114;922655;-76
2021/10/28 02:26:12;;;;;;;83.75;44.06;;;;;;;1.29;45.94;101693.25;449047;114;923076;-74
2021/10/28 02:27:16;;;;;;;85.69;43.46;;;;;;;1.26;45.99;101694.37;449052;114;922512;-74
2021/10/28 02:28:20;;;;;;;85.02;44.01;;;;;;;1.22;46.06;101688.38;451077;114;930481;-74
2021/10/28 02:29:23;;;;;;;91.08;45.17;;;;;;;1.21;46.15;101697.42;450594;114;922453;-74
2021/10/28 02:30:28;;;;;;;84.80;42.60;;;;;;;1.20;46.21;101698.42;449171;115;922435;-75
2021/10/28 02:31:31;;;;;;;78.45;43.05;;;;;;;1.20;46.34;101702.94;450610;114;930476;-74
2021/10/28 02:32:35;;;;;;;87.96;43.35;;;;;;;1.20;46.44;101701.11;451230;114;930433;-74
2021/10/28 02:33:39;;;;;;;81.78;42.73;;;;;;;1.20;46.52;101701.11;450141;114;922606;-73
2021/10/28 02:34:42;;;;;;;82.69;44.00;;;;;;;1.22;46.59;101703.64;449674;114;922786;-75
2021/10/28 02:35:46;;;;;;;87.33;43.78;;;;;;;1.21;46.62;101696.59;448540;114;930131;-75
2021/10/28 02:36:49;;;;;;;85.71;44.53;;;;;;;1.20;46.61;101698.42;449728;114;930565;-76
2021/10/28 02:37:53;;;;;;;87.65;45.21;;;;;;;1.17;46.69;101695.97;450922;114;931074;-75
2021/10/28 02:38:56;;;;;;;88.88;48.18;;;;;;;1.15;46.77;101695.27;448605;114;930642;-76
2021/10/28 02:40:00;;;;;;;84.93;46.66;;;;;;;1.14;46.87;101696.24;448494;114;922671;-74
2021/10/28 02:41:04;;;;;;;97.42;46.90;;;;;;;1.14;46.93;101698.93;449812;115;930697;-75
2021/10/28 02:42:09;;;;;;;86.13;44.74;;;;;;;1.13;46.96;101693.67;451888;114;930697;-75
2021/10/28 02:43:12;;;;;;;83.17;46.14;;;;;;;1.10;47.02;101693.94;449218;114;922759;-75
2021/10/28 02:44:16;;;;;;;81.15;43.68;;;;;;;1.09;47.06;101698.45;450197;114;922602;-75
2021/10/28 02:45:19;;;;;;;93.06;45.49;;;;;;;1.06;47.10;101698.69;451637;114;923127;-76
2021/10/28 02:46:24;;;;;;;79.86;43.09;;;;;;;1.06;47.21;101704.06;451278;114;928031;-75
2021/10/28 02:47:29;;;;;;;82.33;45.00;;;;;;;1.07;47.27;101699.55;450247;114;922590;-75
2021/10/28 02:48:34;;;;;;;83.65;44.96;;;;;;;1.08;47.34;101690.52;451067;114;922561;-75
2021/10/28 02:49:38;;;;;;;81.05;43.13;;;;;;;1.06;47.35;101696.00;451448;116;923221;-75
2021/10/28 02:50:46;;;;;;;91.28;45.19;;;;;;;1.06;47.43;101693.32;451840;115;922704;-76
2021/10/28 02:51:48;;;;;;;86.50;44.91;;;;;;;1.05;47.48;101691.61;449381;116;922976;-76
2021/10/28 02:52:52;;;;;;;89.04;46.06;;;;;;;1.04;47.57;101689.93;452780;114;922743;-75
2021/10/28 02:53:55;;;;;;;83.54;45.56;;;;;;;1.04;47.57;101697.13;449736;114;922580;-75
2021/10/28 02:54:59;;;;;;;86.76;45.33;;;;;;;1.04;47.60;101694.45;449485;114;930360;-74
2021/10/28 02:56:02;;;;;;;86.53;44.58;;;;;;;1.02;47.62;101691.88;449313;116;930452;-75
2021/10/28 02:57:07;;;;;;;83.86;45.62;;;;;;;1.02;47.62;101691.88;449542;114;930314;-74
2021/10/28 02:58:11;;;;;;;85.98;45.40;;;;;;;1.01;47.65;101703.59;451283;114;930399;-76
2021/10/28 02:59:15;;;;;;;80.75;43.41;;;;;;;1.03;47.73;101700.78;449946;116;922565;-75
2021/10/28 03:00:18;;;;;;;88.98;45.62;;;;;;;1.01;47.71;101692.84;448468;116;922667;-74
2021/10/28 03:01:22;;;;;;;82.79;43.83;;;;;;;1.01;47.70;101698.22;451710;114;923183;-74
2021/10/28 03:02:26;;;;;;;83.35;40.76;;;;;;;1.02;47.67;101696.39;441850;117;930388;-75
2021/10/28 03:03:30;;;;;;;76.42;41.84;;;;;;;1.02;47.61;101696.39;441702;116;922550;-75
2021/10/28 03:04:33;;;;;;;78.83;41.22;;;;;;;1.01;47.62;101695.53;441043;118;930631;-75
2021/10/28 03:05:37;;;;;;;72.26;37.54;;;;;;;1.01;47.63;101698.22;440678;116;923160;-75
2021/10/28 03:06:41;;;;;;;74.93;38.66;;;;;;;1.00;47.58;101696.50;441853;116;922615;-75
2021/10/28 03:07:44;;;;;;;70.47;38.31;;;;;;;0.98;47.53;101698.48;441921;116;923319;-76
2021/10/28 03:08:49;;;;;;;81.16;42.14;;;;;;;0.98;47.49;101695.80;441402;117;922585;-74
2021/10/28 03:09:53;;;;;;;77.12;40.88;;;;;;;0.99;47.49;101697.52;441527;118;930090;-75
2021/10/28 03:10:57;;;;;;;85.73;41.87;;;;;;;0.99;47.47;101697.52;442983;116;922618;-75
2021/10/28 03:12:02;;;;;;;81.29;42.26;;;;;;;1.01;47.45;101694.68;440828;118;922574;-73
2021/10/28 03:13:05;;;;;;;83.07;41.83;;;;;;;1.01;47.42;101698.22;443337;116;930623;-75
2021/10/28 03:14:12;;;;;;;85.48;43.50;;;;;;;1.02;47.41;101701.77;434849;119;922845;-75
2021/10/28 03:15:15;;;;;;;80.43;41.56;;;;;;;1.02;47.39;101694.56;438076;118;922609;-75
2021/10/28 03:16:30;;;;;;;75.91;42.47;;;;;;;1.02;47.40;101701.77;437907;117;922976;-76
2021/10/28 03:17:37;;;;;;;86.02;44.89;;;;;;;1.02;47.43;101704.45;435992;118;922766;-75
2021/10/28 03:25:38;;;;;;;87.40;45.69;;;;;;;1.06;47.43;101692.47;436688;117;922542;-75
2021/10/28 03:26:40;;;;;;;84.95;44.68;;;;;;;1.06;47.44;101690.64;435952;120;922591;-75
2021/10/28 03:27:44;;;;;;;90.54;45.63;;;;;;;1.08;47.43;101690.52;436982;117;922706;-74
2021/10/28 03:28:47;;;;;;;82.53;44.09;;;;;;;1.07;47.41;101686.12;437985;117;930679;-74
2021/10/28 03:29:51;;;;;;;86.66;45.02;;;;;;;1.06;47.38;101689.78;438492;117;922395;-75
2021/10/28 03:30:55;;;;;;;86.48;45.89;;;;;;;1.04;47.39;101683.70;436292;120;922597;-76
2021/10/28 03:31:58;;;;;;;89.89;48.16;;;;;;;1.02;47.39;101685.65;438726;118;930536;-74
2021/10/28 03:33:03;;;;;;;91.62;49.19;;;;;;;0.99;47.45;101686.77;438108;117;922985;-73
2021/10/28 03:34:07;;;;;;;94.89;49.72;;;;;;;0.98;47.53;101678.83;438045;118;923095;-76
2021/10/28 03:35:14;;;;;;;95.93;49.24;;;;;;;0.98;47.52;101687.75;437690;118;922432;-74
2021/10/28 03:36:35;;;;;;;100.43;48.95;;;;;;;0.98;47.55;101690.43;438138;117;922505;-73
2021/10/28 03:37:33;;;;;;;107.56;57.48;;;;;;;0.96;47.58;101687.00;437484;117;922879;-75
2021/10/28 03:38:52;;;;;;;135.22;70.76;;;;;;;0.95;47.58;101684.44;437283;120;922662;-74
2021/10/28 03:45:00;;;;;;;191.76;98.02;;;;;;;0.90;47.81;101676.77;436392;118;922573;-74
2021/10/28 03:54:03;;;;;;;244.42;120.77;;;;;;;0.87;48.11;101693.14;459405;112;922599;-75
2021/10/28 04:02:50;;;;;;;166.79;83.42;;;;;;;0.79;48.55;101698.27;457911;112;922769;-74
2021/10/28 04:04:33;;;;;;;165.58;83.58;;;;;;;0.78;48.56;101700.09;459164;113;922593;-73
2021/10/28 04:07:10;;;;;;;119.18;61.45;;;;;;;0.79;48.70;101701.81;455100;112;922529;-75
2021/10/28 04:29:21;;;;;;;123.07;55.34;;;;;;;0.86;49.29;101720.10;462726;113;922473;-76
2021/10/28 04:30:26;;;;;;;103.44;56.43;;;;;;;0.87;49.33;101719.98;462552;113;922223;-74
2021/10/28 04:31:32;;;;;;;268.87;69.69;;;;;;;0.90;49.35;101716.19;463205;113;930460;-74
2021/10/28 04:32:36;;;;;;;130.76;59.64;;;;;;;0.94;49.32;101721.17;463089;113;922621;-74
2021/10/28 04:33:42;;;;;;;129.72;57.02;;;;;;;0.99;49.22;101720.83;462859;113;922376;-75
2021/10/28 04:34:46;;;;;;;317.92;68.84;;;;;;;1.00;49.21;101719.82;463167;113;923316;-73
2021/10/28 04:35:49;;;;;;;454.78;79.67;;;;;;;1.02;49.20;101717.87;462088;113;922229;-75
2021/10/28 04:36:53;;;;;;;131.96;55.06;;;;;;;1.04;49.19;101711.41;462459;113;922645;-74
2021/10/28 04:37:57;;;;;;;117.73;56.26;;;;;;;1.07;49.15;101716.52;463076;113;922321;-72
2021/10/28 04:39:02;;;;;;;113.54;55.44;;;;;;;1.09;49.08;101711.03;461530;113;922825;-75
2021/10/28 04:40:07;;;;;;;586.96;95.36;;;;;;;1.10;49.03;101710.05;462860;113;930239;-74
2021/10/28 04:41:11;;;;;;;310.75;75.73;;;;;;;1.11;49.08;101711.73;462600;113;922549;-74
2021/10/28 04:42:15;;;;;;;123.27;58.38;;;;;;;1.12;49.07;101711.63;462084;113;922490;-73
2021/10/28 04:43:19;;;;;;;113.41;57.24;;;;;;;1.12;49.05;101706.25;461339;113;922548;-75
2021/10/28 04:44:23;;;;;;;108.77;55.16;;;;;;;1.11;49.03;101709.91;461045;113;922981;-75
2021/10/28 04:45:26;;;;;;;104.68;54.71;;;;;;;1.10;49.03;101710.88;461337;113;922566;-74
2021/10/28 04:46:30;;;;;;;108.84;53.46;;;;;;;1.08;49.06;101710.17;462494;113;922498;-74
2021/10/28 04:47:34;;;;;;;111.00;55.37;;;;;;;1.07;49.12;101711.15;462520;113;922953;-75
2021/10/28 04:48:38;;;;;;;108.12;54.06;;;;;;;1.07;49.17;101707.61;461136;113;923116;-75
2021/10/28 04:49:41;;;;;;;111.82;57.06;;;;;;;1.07;49.18;101713.83;460606;113;930570;-75
2021/10/28 04:50:45;;;;;;;131.17;57.41;;;;;;;1.06;49.19;101709.44;462464;113;922913;-74
2021/10/28 04:51:50;;;;;;;167.36;58.76;;;;;;;1.07;49.21;101713.83;461715;113;922559;-75
2021/10/28 04:52:54;;;;;;;148.60;58.73;;;;;;;1.07;49.26;101718.34;461645;113;923218;-74
2021/10/28 04:53:58;;;;;;;136.59;56.65;;;;;;;1.09;49.24;101721.77;462223;113;922919;-76
2021/10/28 04:55:02;;;;;;;124.89;57.17;;;;;;;1.08;49.23;101725.43;460257;114;922583;-73
2021/10/28 04:56:06;;;;;;;128.35;58.83;;;;;;;1.08;49.29;101723.60;461650;113;930442;-74
2021/10/28 04:57:09;;;;;;;119.42;61.17;;;;;;;1.09;49.32;101722.63;461927;113;930309;-76
2021/10/28 04:58:13;;;;;;;123.92;60.52;;;;;;;1.12;49.26;101721.50;464083;113;930021;-75
2021/10/28 04:59:17;;;;;;;114.34;60.71;;;;;;;1.13;49.32;101721.39;464619;113;930215;-76
2021/10/28 05:00:22;;;;;;;115.53;60.84;;;;;;;1.15;49.34;101724.81;463454;113;922215;-76
2021/10/28 05:01:26;;;;;;;122.86;64.55;;;;;;;1.20;49.34;101717.23;462527;113;922215;-73
2021/10/28 05:02:30;;;;;;;121.75;65.29;;;;;;;1.24;49.33;101715.98;461359;113;922371;-75
2021/10/28 05:03:35;;;;;;;127.53;65.85;;;;;;;1.30;49.32;101713.77;462681;113;922404;-75
2021/10/28 05:04:38;;;;;;;135.08;68.76;;;;;;;1.34;49.26;101717.90;462010;113;922250;-74
2021/10/28 05:05:42;;;;;;;184.53;73.33;;;;;;;1.39;49.22;101723.73;461732;113;922194;-75
2021/10/28 05:06:45;;;;;;;157.72;68.14;;;;;;;1.41;49.18;101717.27;462545;113;929992;-74
2021/10/28 05:07:49;;;;;;;143.69;69.62;;;;;;;1.44;49.23;101718.83;463241;113;922560;-74
2021/10/28 05:08:52;;;;;;;125.66;69.24;;;;;;;1.47;49.20;101711.39;463575;113;930211;-75
2021/10/28 05:09:56;;;;;;;139.74;68.41;;;;;;;1.49;49.19;101714.78;463033;113;922960;-74
2021/10/28 05:11:00;;;;;;;137.46;69.40;;;;;;;1.55;49.15;101710.72;463349;113;929890;-75
2021/10/28 05:12:04;;;;;;;129.59;66.02;;;;;;;1.59;49.06;101710.36;462658;113;922279;-75
2021/10/28 05:13:12;;;;;;;123.88;65.34;;;;;;;1.63;48.97;101714.48;462439;113;922163;-75
2021/10/28 05:14:13;;;;;;;122.70;62.98;;;;;;;1.65;48.92;101709.81;463562;113;922339;-75
2021/10/28 05:15:17;;;;;;;123.10;62.34;;;;;;;1.69;48.91;101707.73;462833;113;922175;-75
2021/10/28 05:16:22;;;;;;;120.76;63.93;;;;;;;1.71;48.88;101710.30;463021;113;922267;-76
2021/10/28 05:17:26;;;;;;;120.01;62.16;;;;;;;1.72;48.80;101710.16;455130;114;923083;-79
2021/10/28 05:18:38;;;;;;;123.46;63.40;;;;;;;1.73;48.80;101709.17;454969;114;922622;-74
2021/10/28 05:19:38;;;;;;;112.61;61.81;;;;;;;1.76;48.85;101716.14;456773;115;922306;-75
2021/10/28 05:20:44;;;;;;;106.66;60.34;;;;;;;1.77;48.86;101721.37;447413;117;922868;-74
2021/10/28 05:21:47;;;;;;;114.41;60.22;;;;;;;1.81;48.88;101720.14;448428;115;922133;-75
2021/10/28 05:22:51;;;;;;;115.08;60.24;;;;;;;1.86;48.85;101717.06;457835;114;922263;-76
2021/10/28 05:23:55;;;;;;;122.37;59.83;;;;;;;1.90;48.84;101719.35;457335;113;922250;-75
2021/10/28 05:24:58;;;;;;;112.23;59.34;;;;;;;1.94;48.75;101725.30;458670;113;922327;-76
2021/10/28 05:26:02;;;;;;;117.22;60.45;;;;;;;1.98;48.76;101716.88;456761;113;929983;-76
2021/10/28 05:27:06;;;;;;;119.67;61.50;;;;;;;2.03;48.73;101724.54;457379;113;930294;-76
2021/10/28 05:28:11;;;;;;;118.74;62.91;;;;;;;2.08;48.65;101715.09;455842;114;922238;-78
2021/10/28 05:29:14;;;;;;;118.42;61.54;;;;;;;2.12;48.64;101710.28;457775;115;922385;-78
2021/10/28 05:30:19;;;;;;;122.01;62.91;;;;;;;2.18;48.65;101711.59;458633;114;922213;-77
2021/10/28 05:31:22;;;;;;;116.68;60.16;;;;;;;2.23;48.53;101720.11;457515;112;922445;-78
2021/10/28 05:32:26;;;;;;;113.25;59.09;;;;;;;2.34;48.55;101717.34;457754;115;922134;-78
2021/10/28 05:33:30;;;;;;;111.87;58.86;;;;;;;2.34;48.55;101717.34;457442;115;929946;-78
2021/10/28 05:34:33;;;;;;;114.45;59.95;;;;;;;2.46;48.43;101710.89;456005;113;922610;-76
2021/10/28 05:35:37;;;;;;;118.38;60.02;;;;;;;2.46;48.43;101710.89;457563;113;929941;-76
2021/10/28 05:36:41;;;;;;;119.01;59.57;;;;;;;2.52;48.31;101704.97;457609;113;922521;-76
2021/10/28 05:37:45;;;;;;;114.04;56.51;;;;;;;2.59;48.17;101708.83;458285;113;922372;-77
2021/10/28 05:38:49;;;;;;;107.80;56.42;;;;;;;2.64;48.05;101711.97;457438;113;922208;-77
2021/10/28 05:39:52;;;;;;;109.43;56.81;;;;;;;2.68;48.06;101709.84;457315;113;930599;-77
2021/10/28 05:40:57;;;;;;;103.47;55.97;;;;;;;2.73;48.04;101719.22;456803;115;930295;-77
2021/10/28 05:42:01;;;;;;;112.14;55.26;;;;;;;2.80;47.95;101714.14;459081;115;922764;-78
2021/10/28 05:43:06;;;;;;;108.16;57.09;;;;;;;2.84;47.86;101716.42;457284;112;930433;-78
2021/10/28 05:44:10;;;;;;;103.37;57.35;;;;;;;2.91;47.78;101719.42;456770;113;930166;-77
2021/10/28 05:45:15;;;;;;;100.64;53.27;;;;;;;2.96;47.74;101714.47;456948;115;922054;-75
2021/10/28 05:46:21;;;;;;;109.54;56.12;;;;;;;3.03;47.72;101721.02;458182;115;922102;-75
2021/10/28 05:47:24;;;;;;;106.66;55.46;;;;;;;3.08;47.59;101716.06;457256;113;922011;-76
2021/10/28 05:48:30;;;;;;;103.03;53.97;;;;;;;3.16;47.53;101718.05;456612;115;930475;-76
2021/10/28 05:49:33;;;;;;;106.94;55.89;;;;;;;3.20;47.48;101717.63;457872;112;922530;-77
2021/10/28 05:50:37;;;;;;;102.32;55.30;;;;;;;3.26;47.45;101716.21;459317;115;930280;-76
2021/10/28 05:51:42;;;;;;;114.78;53.71;;;;;;;3.31;47.27;101714.80;458560;113;930204;-76
2021/10/28 05:52:50;;;;;;;101.32;53.14;;;;;;;3.36;47.12;101712.53;449328;116;922118;-75
2021/10/28 05:53:53;;;;;;;97.14;52.53;;;;;;;3.39;47.05;101713.26;450124;115;922450;-75
2021/10/28 05:54:57;;;;;;;92.92;52.03;;;;;;;3.43;47.02;101712.83;457822;115;922408;-75